createdAt,value
2023-05-27T00:00:50.889Z,3.20
2023-05-27T00:03:29.586Z,3.30
2023-05-27T00:05:58.628Z,3.60
2023-05-27T00:08:27.385Z,3.10
2023-05-27T00:10:56.062Z,3.80
2023-05-27T00:13:24.751Z,3.40
2023-05-27T00:15:53.898Z,3.40
2023-05-27T00:18:23.261Z,3.50
2023-05-27T00:20:52.180Z,3.40
2023-05-27T00:23:21.571Z,4.00
2023-05-27T00:25:50.399Z,3.60
2023-05-27T00:28:19.940Z,4.30
2023-05-27T00:30:48.726Z,4.50
2023-05-27T00:33:17.628Z,4.70
2023-05-27T00:35:46.409Z,3.70
2023-05-27T00:38:15.131Z,4.10
2023-05-27T00:40:44.911Z,3.80
2023-05-27T00:43:13.936Z,3.90
2023-05-27T00:45:42.604Z,4.70
2023-05-27T00:48:12.182Z,4.30
2023-05-27T00:50:41.387Z,4.30
2023-05-27T00:53:10.398Z,3.90
2023-05-27T00:55:39.268Z,3.90
2023-05-27T00:58:10.833Z,3.60
2023-05-27T01:00:40.238Z,4.00
2023-05-27T01:03:09.481Z,4.10
2023-05-27T01:05:39.981Z,3.70
2023-05-27T01:08:21.863Z,3.70
2023-05-27T01:10:53.934Z,3.80
2023-05-27T01:13:37.250Z,4.00
2023-05-27T01:16:12.628Z,4.20
2023-05-27T01:18:43.346Z,4.60
2023-05-27T01:21:20.563Z,4.10
2023-05-27T01:23:50.461Z,5.10
2023-05-27T01:26:19.308Z,4.10
2023-05-27T01:28:48.300Z,4.30
2023-05-27T01:31:37.627Z,4.30
2023-05-27T01:34:11.579Z,3.30
2023-05-27T01:36:48.991Z,3.20
2023-05-27T01:39:18.300Z,4.20
2023-05-27T01:41:47.495Z,3.20
2023-05-27T01:44:18.608Z,3.30
2023-05-27T01:46:48.093Z,3.20
2023-05-27T01:49:17.005Z,3.50
2023-05-27T01:51:45.689Z,3.80
2023-05-27T01:54:14.377Z,3.70
2023-05-27T01:56:43.166Z,3.50
2023-05-27T01:59:11.843Z,3.20
2023-05-27T02:01:42.575Z,3.80
2023-05-27T02:04:11.802Z,3.60
2023-05-27T02:06:42.130Z,3.50
2023-05-27T02:09:14.281Z,3.40
2023-05-27T02:11:45.133Z,3.40
2023-05-27T02:14:13.795Z,3.20
2023-05-27T02:16:42.783Z,3.80
2023-05-27T02:19:11.991Z,3.80
2023-05-27T02:21:40.904Z,3.80
2023-05-27T02:24:09.650Z,3.70
2023-05-27T02:26:39.491Z,3.60
2023-05-27T02:29:10.332Z,3.30
2023-05-27T02:31:39.289Z,3.20
2023-05-27T02:34:08.616Z,3.30
2023-05-27T02:36:37.493Z,3.40
2023-05-27T02:39:07.646Z,3.30
2023-05-27T02:41:36.719Z,3.40
2023-05-27T02:44:07.145Z,3.30
2023-05-27T02:46:35.759Z,3.30
2023-05-27T02:49:04.849Z,2.90
2023-05-27T02:51:33.601Z,3.50
2023-05-27T02:54:02.410Z,2.90
2023-05-27T02:56:31.187Z,3.50
2023-05-27T02:58:59.968Z,2.50
2023-05-27T03:01:28.772Z,3.70
2023-05-27T03:03:57.565Z,3.30
2023-05-27T03:06:26.336Z,3.30
2023-05-27T03:08:55.049Z,3.40
2023-05-27T03:11:23.694Z,3.40
2023-05-27T03:13:53.226Z,3.50
2023-05-27T03:16:22.125Z,3.50
2023-05-27T03:18:50.936Z,3.80
2023-05-27T03:21:20.176Z,3.90
2023-05-27T03:23:49.583Z,4.00
2023-05-27T03:26:18.169Z,3.80
2023-05-27T03:28:47.566Z,3.00
2023-05-27T03:31:16.175Z,3.60
2023-05-27T03:33:51.735Z,3.40
2023-05-27T03:36:22.972Z,3.50
2023-05-27T03:38:51.837Z,3.60
2023-05-27T03:41:20.945Z,3.70
2023-05-27T03:43:49.952Z,3.60
2023-05-27T03:46:19.269Z,3.80
2023-05-27T03:48:48.142Z,3.90
2023-05-27T03:51:17.112Z,3.70
2023-05-27T03:53:47.151Z,3.10
2023-05-27T03:56:17.137Z,3.80
2023-05-27T03:58:47.599Z,3.10
2023-05-27T04:01:16.270Z,3.70
2023-05-27T04:03:46.116Z,4.00
2023-05-27T04:06:15.295Z,3.80
2023-05-27T04:08:44.268Z,4.00
2023-05-27T04:11:14.210Z,3.80
2023-05-27T04:13:43.066Z,3.90
2023-05-27T04:16:12.284Z,3.00
2023-05-27T04:18:41.368Z,3.20
2023-05-27T04:21:10.256Z,3.20
2023-05-27T04:23:39.035Z,4.10
2023-05-27T04:26:08.263Z,3.30
2023-05-27T04:28:40.804Z,3.40
2023-05-27T04:31:13.854Z,3.80
2023-05-27T04:33:48.881Z,3.70
2023-05-27T04:36:18.671Z,4.20
2023-05-27T04:39:05.062Z,3.80
2023-05-27T04:41:35.578Z,4.70
2023-05-27T04:44:15.660Z,4.00
2023-05-27T04:46:46.382Z,4.60
2023-05-27T04:49:15.382Z,3.80
2023-05-27T04:51:46.399Z,4.20
2023-05-27T04:54:15.584Z,3.40
2023-05-27T04:56:45.504Z,4.10
2023-05-27T04:59:21.485Z,3.90
2023-05-27T05:02:19.449Z,3.50
2023-05-27T05:04:56.010Z,4.30
2023-05-27T05:07:25.404Z,3.40
2023-05-27T05:09:54.833Z,2.90
2023-05-27T05:12:29.636Z,3.90
2023-05-27T05:14:59.670Z,3.40
2023-05-27T05:17:28.785Z,4.10
2023-05-27T05:19:58.152Z,3.20
2023-05-27T05:22:28.876Z,3.90
2023-05-27T05:24:58.638Z,3.80
2023-05-27T05:27:32.822Z,2.90
2023-05-27T05:30:02.719Z,5.00
2023-05-27T05:32:31.736Z,3.60
2023-05-27T05:35:01.058Z,3.90
2023-05-27T05:37:30.751Z,4.20
2023-05-27T05:39:59.831Z,4.50
2023-05-27T05:42:28.864Z,4.20
2023-05-27T05:44:58.244Z,4.40
2023-05-27T05:47:27.163Z,4.20
2023-05-27T05:50:04.815Z,4.00
2023-05-27T05:52:34.461Z,3.90
2023-05-27T05:55:04.121Z,3.70
2023-05-27T05:57:36.124Z,2.80
2023-05-27T06:00:07.237Z,3.80
2023-05-27T06:02:48.130Z,2.90
2023-05-27T06:05:37.067Z,2.70
2023-05-27T06:08:06.669Z,2.20
2023-05-27T06:10:36.629Z,2.50
2023-05-27T06:13:06.998Z,2.40
2023-05-27T06:15:36.096Z,2.50
2023-05-27T06:18:06.597Z,1.90
2023-05-27T06:20:35.451Z,2.30
2023-05-27T06:23:04.754Z,1.70
2023-05-27T06:26:02.606Z,1.70
2023-05-27T06:28:34.144Z,1.70
2023-05-27T06:31:04.061Z,1.90
2023-05-27T06:33:33.789Z,1.60
2023-05-27T06:36:02.776Z,2.00
2023-05-27T06:38:31.773Z,1.70
2023-05-27T06:41:00.980Z,1.80
2023-05-27T06:43:30.314Z,1.60
2023-05-27T06:46:21.715Z,1.50
2023-05-27T06:49:11.138Z,1.60
2023-05-27T06:51:39.929Z,1.40
2023-05-27T06:54:08.930Z,1.40
2023-05-27T06:56:43.257Z,1.80
2023-05-27T06:59:31.412Z,1.40
2023-05-27T07:02:00.480Z,1.30
2023-05-27T07:04:30.109Z,1.50
2023-05-27T07:07:01.755Z,1.60
2023-05-27T07:09:31.059Z,1.80
2023-05-27T07:12:03.569Z,1.30
2023-05-27T07:14:52.793Z,1.50
2023-05-27T07:17:22.081Z,1.60
2023-05-27T07:19:51.279Z,1.70
2023-05-27T07:22:22.016Z,1.40
2023-05-27T07:24:51.021Z,1.80
2023-05-27T07:27:22.991Z,2.40
2023-05-27T07:29:57.410Z,1.70
2023-05-27T07:32:49.192Z,1.50
2023-05-27T07:35:19.030Z,1.80
2023-05-27T07:37:48.024Z,1.50
2023-05-27T07:40:18.765Z,2.00
2023-05-27T07:42:47.963Z,1.80
2023-05-27T07:45:17.535Z,1.70
2023-05-27T07:47:48.159Z,1.60
2023-05-27T07:50:18.323Z,1.60
2023-05-27T07:52:56.329Z,1.70
2023-05-27T07:55:28.483Z,1.30
2023-05-27T07:57:58.334Z,1.40
2023-05-27T08:00:32.472Z,1.80
2023-05-27T08:03:03.004Z,1.70
2023-05-27T08:06:07.011Z,1.80
2023-05-27T08:09:10.049Z,1.90
2023-05-27T08:12:03.967Z,1.50
2023-05-27T08:15:13.013Z,1.70
2023-05-27T08:18:13.049Z,1.70
2023-05-27T08:20:53.858Z,1.70
2023-05-27T08:24:00.184Z,1.70
2023-05-27T08:26:50.970Z,2.10
2023-05-27T08:29:40.112Z,1.90
2023-05-27T08:32:43.742Z,1.80
2023-05-27T08:35:15.309Z,1.50
2023-05-27T08:37:46.182Z,1.80
2023-05-27T08:40:26.329Z,1.80
2023-05-27T08:43:01.693Z,1.70
2023-05-27T08:45:37.189Z,1.70
2023-05-27T08:48:14.590Z,2.00
2023-05-27T08:50:46.080Z,2.20
2023-05-27T08:53:19.753Z,2.10
2023-05-27T08:55:53.375Z,2.00
2023-05-27T08:58:26.330Z,2.10
2023-05-27T09:00:57.913Z,1.80
2023-05-27T09:03:29.420Z,2.00
2023-05-27T09:06:03.730Z,2.10
2023-05-27T09:08:49.642Z,1.50
2023-05-27T09:11:26.948Z,1.30
2023-05-27T09:13:59.737Z,1.90
2023-05-27T09:16:28.660Z,1.80
2023-05-27T09:18:59.289Z,1.60
2023-05-27T09:21:28.770Z,2.00
2023-05-27T09:24:01.170Z,1.60
2023-05-27T09:26:36.362Z,2.00
2023-05-27T09:29:11.259Z,2.00
2023-05-27T09:31:43.118Z,1.70
2023-05-27T09:34:18.193Z,1.70
2023-05-27T09:36:51.616Z,1.60
2023-05-27T09:39:24.958Z,1.60
2023-05-27T09:42:01.037Z,1.60
2023-05-27T09:44:33.203Z,2.30
2023-05-27T09:47:05.901Z,2.00
2023-05-27T09:49:37.023Z,2.10
2023-05-27T09:52:11.274Z,1.60
2023-05-27T09:54:40.761Z,1.90
2023-05-27T09:57:16.149Z,1.60
2023-05-27T09:59:47.981Z,2.10
2023-05-27T10:02:20.647Z,2.20
2023-05-27T10:04:50.933Z,1.80
2023-05-27T10:07:31.272Z,1.50
2023-05-27T10:10:02.887Z,1.90
2023-05-27T10:12:32.719Z,2.40
2023-05-27T10:15:02.552Z,2.00
2023-05-27T10:17:51.673Z,2.00
2023-05-27T10:20:33.527Z,1.90
2023-05-27T10:23:32.673Z,1.70
2023-05-27T10:26:09.042Z,1.80
2023-05-27T10:28:42.760Z,2.00
2023-05-27T10:31:14.744Z,2.00
2023-05-27T10:33:50.960Z,2.10
2023-05-27T10:36:25.513Z,1.70
2023-05-27T10:38:58.902Z,2.10
2023-05-27T10:41:28.833Z,1.80
2023-05-27T10:44:01.487Z,1.60
2023-05-27T10:46:43.154Z,1.90
2023-05-27T10:49:16.787Z,2.30
2023-05-27T10:51:45.763Z,2.20
2023-05-27T10:56:52.436Z,2.00
2023-05-27T10:59:26.624Z,1.80
2023-05-27T11:01:56.127Z,2.00
2023-05-27T11:04:24.998Z,1.70
2023-05-27T11:07:04.790Z,2.10
2023-05-27T11:09:46.409Z,1.50
2023-05-27T11:12:25.415Z,1.70
2023-05-27T11:14:56.790Z,1.70
2023-05-27T11:17:27.167Z,1.80
2023-05-27T11:19:56.681Z,2.00
2023-05-27T11:22:29.210Z,2.10
2023-05-27T11:24:59.047Z,1.80
2023-05-27T11:27:39.330Z,2.20
2023-05-27T11:30:14.950Z,1.80
2023-05-27T11:32:48.120Z,1.90
2023-05-27T11:35:19.168Z,1.80
2023-05-27T11:37:52.553Z,1.80
2023-05-27T11:40:22.034Z,1.80
2023-05-27T11:42:51.455Z,1.70
2023-05-27T11:45:21.729Z,1.80
2023-05-27T11:47:55.384Z,1.90
2023-05-27T11:50:25.877Z,1.50
2023-05-27T11:52:59.461Z,1.40
2023-05-27T11:55:28.189Z,1.70
2023-05-27T11:57:57.475Z,1.30
2023-05-27T12:00:26.596Z,1.50
2023-05-27T12:02:55.794Z,1.60
2023-05-27T12:05:33.991Z,1.80
2023-05-27T12:08:05.129Z,1.70
2023-05-27T12:10:34.130Z,1.80
2023-05-27T12:13:07.698Z,1.50
2023-05-27T12:15:36.797Z,1.50
2023-05-27T12:18:06.980Z,1.40
2023-05-27T12:20:35.952Z,1.60
2023-05-27T12:23:04.729Z,1.50
2023-05-27T12:25:33.617Z,1.40
2023-05-27T12:28:02.516Z,1.40
2023-05-27T12:30:31.514Z,1.30
2023-05-27T12:33:01.257Z,1.50
2023-05-27T12:35:30.322Z,1.50
2023-05-27T12:37:59.718Z,1.40
2023-05-27T12:40:28.793Z,1.90
2023-05-27T12:42:57.597Z,1.90
2023-05-27T12:45:27.389Z,1.90
2023-05-27T12:47:56.537Z,1.90
2023-05-27T12:50:25.286Z,1.60
2023-05-27T12:52:54.589Z,1.70
2023-05-27T12:55:24.287Z,1.50
2023-05-27T12:57:54.057Z,2.10
2023-05-27T13:00:23.460Z,1.60
2023-05-27T13:02:52.719Z,1.90
2023-05-27T13:05:21.781Z,1.40
2023-05-27T13:08:06.464Z,1.30
2023-05-27T13:10:36.487Z,1.70
2023-05-27T13:13:06.724Z,1.40
2023-05-27T13:15:36.628Z,1.70
2023-05-27T13:18:08.153Z,1.60
2023-05-27T13:20:37.634Z,1.90
2023-05-27T13:23:07.384Z,1.50
2023-05-27T13:25:36.164Z,1.40
2023-05-27T13:28:05.367Z,1.70
2023-05-27T13:30:34.567Z,1.50
2023-05-27T13:33:03.976Z,1.60
2023-05-27T13:35:33.169Z,1.20
2023-05-27T13:38:02.405Z,1.80
2023-05-27T13:40:31.128Z,1.70
2023-05-27T13:42:59.915Z,1.80
2023-05-27T13:45:28.851Z,1.80
2023-05-27T13:47:58.270Z,1.70
2023-05-27T13:50:27.431Z,2.00
2023-05-27T13:52:56.754Z,1.70
2023-05-27T13:55:25.698Z,1.40
2023-05-27T13:57:54.730Z,1.80
2023-05-27T14:00:25.241Z,1.50
2023-05-27T14:02:55.626Z,1.60
2023-05-27T14:05:24.647Z,1.60
2023-05-27T14:07:54.048Z,1.70
2023-05-27T14:10:22.937Z,1.70
2023-05-27T14:12:51.636Z,1.40
2023-05-27T14:15:20.580Z,1.50
2023-05-27T14:17:49.469Z,1.60
2023-05-27T14:20:18.744Z,1.40
2023-05-27T14:22:48.319Z,1.80
2023-05-27T14:25:18.647Z,1.20
2023-05-27T14:27:47.375Z,1.70
2023-05-27T14:30:17.465Z,1.40
2023-05-27T14:32:47.009Z,1.60
2023-05-27T14:35:16.046Z,1.30
2023-05-27T14:37:44.865Z,1.50
2023-05-27T14:40:13.840Z,1.60
2023-05-27T14:42:42.636Z,1.70
2023-05-27T14:45:12.016Z,1.30
2023-05-27T14:47:40.825Z,1.20
2023-05-27T14:50:10.213Z,1.50
2023-05-27T14:52:38.802Z,1.30
2023-05-27T14:55:08.759Z,1.60
2023-05-27T14:57:37.518Z,1.90
2023-05-27T15:00:08.962Z,1.50
2023-05-27T15:02:38.352Z,1.10
2023-05-27T15:05:09.097Z,1.20
2023-05-27T15:07:39.318Z,1.60
2023-05-27T15:10:08.772Z,1.50
2023-05-27T15:12:42.993Z,1.50
2023-05-27T15:15:13.343Z,1.40
2023-05-27T15:17:45.714Z,1.40
2023-05-27T15:20:16.703Z,1.30
2023-05-27T15:22:47.014Z,1.30
2023-05-27T15:25:16.300Z,1.30
2023-05-27T15:27:45.082Z,1.60
2023-05-27T15:30:14.152Z,1.50
2023-05-27T15:32:42.991Z,1.70
2023-05-27T15:35:11.966Z,1.50
2023-05-27T15:37:40.852Z,2.40
2023-05-27T15:40:10.133Z,1.30
2023-05-27T15:42:39.030Z,1.60
2023-05-27T15:45:08.481Z,1.30
2023-05-27T15:47:37.247Z,1.40
2023-05-27T15:50:07.359Z,1.40
2023-05-27T15:52:36.141Z,1.70
2023-05-27T15:55:06.159Z,1.70
2023-05-27T15:57:35.660Z,1.10
2023-05-27T16:00:05.156Z,1.30
2023-05-27T16:02:40.740Z,1.60
2023-05-27T16:05:14.715Z,1.50
2023-05-27T16:07:44.879Z,1.50
2023-05-27T16:10:13.643Z,1.40
2023-05-27T16:12:43.441Z,1.40
2023-05-27T16:15:13.993Z,1.60
2023-05-27T16:17:43.915Z,1.50
2023-05-27T16:20:13.550Z,1.70
2023-05-27T16:22:43.417Z,1.80
2023-05-27T16:25:12.096Z,1.40
2023-05-27T16:27:41.077Z,1.60
2023-05-27T16:30:10.582Z,1.20
2023-05-27T16:32:39.323Z,1.30
2023-05-27T16:35:09.001Z,1.20
2023-05-27T16:37:39.519Z,1.30
2023-05-27T16:40:09.833Z,1.40
2023-05-27T16:42:38.853Z,1.70
2023-05-27T16:45:09.414Z,1.20
2023-05-27T16:47:38.478Z,1.40
2023-05-27T16:50:08.274Z,1.40
2023-05-27T16:52:37.263Z,1.50
2023-05-27T16:55:08.098Z,1.70
2023-05-27T16:57:37.017Z,1.10
2023-05-27T17:00:07.775Z,1.40
2023-05-27T17:02:37.067Z,1.40
2023-05-27T17:05:08.696Z,1.40
2023-05-27T17:07:38.492Z,1.60
2023-05-27T17:10:09.009Z,1.20
2023-05-27T17:12:38.105Z,1.30
2023-05-27T17:15:07.725Z,1.50
2023-05-27T17:17:36.579Z,1.50
2023-05-27T17:20:08.420Z,1.90
2023-05-27T17:22:38.074Z,1.60
2023-05-27T17:25:09.171Z,1.80
2023-05-27T17:27:38.117Z,1.60
2023-05-27T17:30:07.986Z,1.50
2023-05-27T17:32:36.691Z,2.20
2023-05-27T17:35:06.801Z,3.40
2023-05-27T17:37:36.032Z,2.90
2023-05-27T17:40:09.238Z,6.80
2023-05-27T17:42:38.609Z,3.50
2023-05-27T17:45:09.165Z,5.00
2023-05-27T17:47:38.579Z,4.10
2023-05-27T17:50:08.812Z,6.90
2023-05-27T17:52:38.085Z,4.30
2023-05-27T17:55:08.263Z,5.30
2023-05-27T17:57:37.594Z,4.00
2023-05-27T18:00:14.177Z,4.50
2023-05-27T18:02:46.190Z,3.00
2023-05-27T18:05:16.291Z,6.10
2023-05-27T18:07:45.750Z,6.20
2023-05-27T18:10:18.159Z,3.80
2023-05-27T18:12:46.995Z,2.60
2023-05-27T18:15:17.192Z,2.30
2023-05-27T18:17:46.590Z,2.40
2023-05-27T18:20:17.379Z,2.00
2023-05-27T18:22:46.290Z,2.70
2023-05-27T18:25:15.781Z,2.40
2023-05-27T18:27:44.858Z,2.80
2023-05-27T18:30:15.597Z,2.80
2023-05-27T18:32:49.688Z,2.60
2023-05-27T18:37:51.797Z,3.60
2023-05-27T18:40:24.125Z,3.10
2023-05-27T18:42:53.776Z,3.20
2023-05-27T18:46:00.039Z,3.70
2023-05-27T18:48:31.975Z,3.70
2023-05-27T18:51:01.154Z,2.60
2023-05-27T18:53:31.221Z,2.80
2023-05-27T18:56:00.037Z,3.00
2023-05-27T18:58:29.418Z,3.00
2023-05-27T19:00:58.423Z,2.70
2023-05-27T19:03:27.384Z,2.50
2023-05-27T19:05:56.175Z,2.20
2023-05-27T19:08:25.100Z,2.60
2023-05-27T19:10:54.355Z,2.70
2023-05-27T19:13:23.887Z,3.00
2023-05-27T19:15:53.122Z,3.60
2023-05-27T19:18:22.396Z,3.40
2023-05-27T19:20:51.378Z,3.40
2023-05-27T19:23:20.462Z,3.10
2023-05-27T19:25:49.877Z,3.40
2023-05-27T19:28:19.072Z,3.20
2023-05-27T19:30:48.382Z,3.30
2023-05-27T19:33:17.889Z,3.80
2023-05-27T19:35:48.401Z,3.90
2023-05-27T19:38:17.810Z,7.50
2023-05-27T19:40:46.700Z,11.40
2023-05-27T19:43:16.088Z,10.80
2023-05-27T19:45:44.998Z,9.00
2023-05-27T19:48:15.560Z,12.90
2023-05-27T19:50:45.844Z,6.80
2023-05-27T19:53:15.853Z,11.20
2023-05-27T19:55:47.076Z,10.80
2023-05-27T19:58:17.013Z,6.00
2023-05-27T20:00:45.959Z,4.90
2023-05-27T20:03:14.913Z,4.70
2023-05-27T20:05:44.420Z,5.40
2023-05-27T20:08:13.293Z,5.50
2023-05-27T20:10:42.171Z,4.10
2023-05-27T20:13:11.283Z,4.20
2023-05-27T20:15:39.959Z,4.00
2023-05-27T20:18:08.795Z,4.20
2023-05-27T20:20:38.178Z,4.90
2023-05-27T20:23:07.140Z,5.00
2023-05-27T20:25:36.456Z,5.60
2023-05-27T20:28:05.557Z,4.30
2023-05-27T20:30:34.370Z,4.40
2023-05-27T20:33:03.545Z,4.60
2023-05-27T20:35:32.830Z,4.40
2023-05-27T20:38:01.706Z,4.70
2023-05-27T20:40:30.714Z,4.60
2023-05-27T20:42:59.514Z,4.80
2023-05-27T20:45:28.513Z,5.20
2023-05-27T20:47:57.223Z,5.50
2023-05-27T20:50:27.516Z,5.10
2023-05-27T20:52:56.620Z,5.00
2023-05-27T20:55:25.409Z,4.90
2023-05-27T20:57:54.278Z,5.00
2023-05-27T21:00:23.169Z,5.20
2023-05-27T21:02:52.841Z,4.90
2023-05-27T21:05:21.866Z,5.10
2023-05-27T21:07:51.748Z,4.90
2023-05-27T21:10:20.358Z,6.40
2023-05-27T21:12:49.253Z,6.00
2023-05-27T21:15:18.588Z,5.60
2023-05-27T21:17:48.030Z,5.10
2023-05-27T21:20:16.972Z,5.20
2023-05-27T21:22:46.279Z,4.80
2023-05-27T21:25:15.878Z,4.50
2023-05-27T21:27:44.868Z,5.00
2023-05-27T21:30:15.190Z,5.20
2023-05-27T21:32:44.053Z,4.80
2023-05-27T21:35:13.190Z,4.90
2023-05-27T21:37:42.156Z,4.90
2023-05-27T21:40:11.413Z,4.70
2023-05-27T21:42:40.155Z,4.80
2023-05-27T21:45:09.754Z,4.80
2023-05-27T21:47:38.666Z,5.20
2023-05-27T21:50:08.049Z,4.60
2023-05-27T21:52:36.941Z,4.20
2023-05-27T21:55:06.561Z,4.20
2023-05-27T21:57:35.637Z,4.70
2023-05-27T22:00:14.137Z,4.30
2023-05-27T22:02:43.165Z,4.50
2023-05-27T22:05:14.602Z,4.40
2023-05-27T22:07:44.020Z,4.40
2023-05-27T22:10:14.234Z,4.40
2023-05-27T22:12:42.800Z,4.20
2023-05-27T22:15:12.129Z,4.20
2023-05-27T22:17:42.030Z,4.70
2023-05-27T22:20:12.177Z,4.60
2023-05-27T22:22:41.439Z,4.50
2023-05-27T22:25:10.417Z,4.40
2023-05-27T22:27:39.216Z,4.40
2023-05-27T22:30:11.420Z,4.20
2023-05-27T22:32:40.326Z,4.40
2023-05-27T22:35:09.901Z,4.10
2023-05-27T22:37:38.672Z,5.00
2023-05-27T22:40:08.434Z,4.60
2023-05-27T22:42:37.372Z,4.60
2023-05-27T22:45:06.909Z,4.60
2023-05-27T22:47:37.747Z,4.30
2023-05-27T22:50:08.479Z,4.60
2023-05-27T22:52:37.234Z,4.40
2023-05-27T22:55:06.639Z,4.10
2023-05-27T22:57:35.644Z,3.60
2023-05-27T23:00:07.238Z,3.70
2023-05-27T23:02:35.930Z,4.60
2023-05-27T23:05:05.789Z,3.90
2023-05-27T23:07:34.476Z,4.30
2023-05-27T23:10:03.883Z,3.80
2023-05-27T23:12:32.686Z,3.50
2023-05-27T23:15:01.757Z,4.00
2023-05-27T23:17:30.695Z,3.90
2023-05-27T23:19:59.585Z,4.30
2023-05-27T23:22:30.317Z,3.90
2023-05-27T23:25:00.226Z,4.00
2023-05-27T23:27:29.605Z,3.60
2023-05-27T23:29:58.497Z,4.10
2023-05-27T23:32:27.295Z,4.20
2023-05-27T23:34:56.183Z,4.10
2023-05-27T23:37:25.147Z,3.90
2023-05-27T23:39:53.956Z,4.30
2023-05-27T23:42:22.858Z,3.80
2023-05-27T23:44:52.856Z,3.80
2023-05-27T23:47:21.566Z,3.60
2023-05-27T23:49:50.317Z,3.80
2023-05-27T23:52:19.110Z,4.10
2023-05-27T23:54:48.845Z,3.90
2023-05-27T23:57:18.436Z,3.90
